Ssi Glorious — V7XC5 — position and weather

sailwx.info

Track history (hours):
 
Tides and Currents Weather Stations Pressure Air Temp Water Temp Dewpoint Dewpoint Depression Visibility Wind Speed Wind Dir Waves Ship Positions

Ssi Glorious

Last reported at 2018-Aug-04 10:56 UTC. Time now 2018-Aug-14 07:02 UTC.
Position N 36°30' E 014°27'.
Warning: this ship's position is 9 days out of date.

Length 190 m; draft 8.5 m.

Type: Cargo ship. MMSI: 538004446.

Date/timePositionNaut miles runAvg speedWind from/ knotsBaromVisibWave heightAir tempDewpointWater temp
2018-Aug-04 10:56N 36°30' E 014°27'512.6
2018-Aug-04 10:30N 36°31' E 014°20'612.5
2018-Aug-04 10:00N 36°33' E 014°13'612.2
2018-Aug-04 09:30N 36°35' E 014°06'612.3
2018-Aug-04 09:00N 36°38' E 013°59'612.3
2018-Aug-04 08:30N 36°39' E 013°51'612.5
2018-Aug-04 08:00N 36°41' E 013°44'612.5
2018-Aug-04 07:30N 36°43' E 013°36'612.4
2018-Aug-04 07:00N 36°45' E 013°29'612.4
2018-Aug-04 06:30N 36°47' E 013°22'612.2
2018-Aug-04 06:00N 36°49' E 013°14'612.4
2018-Aug-04 05:30N 36°51' E 013°07'30312.6
2018-Aug-03 05:25N 37°28' E 006°50'2011.3
2018-Aug-03 03:37N 37°26' E 006°24'1212.4
2018-Aug-03 02:37N 37°24' E 006°09'312.4
2018-Aug-03 02:21N 37°24' E 006°05'1312.1
2018-Aug-03 01:19N 37°22' E 005°49'412.0
2018-Aug-03 01:00N 37°22' E 005°44'612.1
2018-Aug-03 00:30N 37°21' E 005°37'612.0
2018-Aug-03 00:00N 37°21' E 005°29'6712.4
2018-Aug-02 18:34N 37°12' E 004°05'112.0
2018-Aug-02 18:30N 37°12' E 004°04'611.8
2018-Aug-02 18:00N 37°11' E 003°57'611.7
2018-Aug-02 17:30N 37°11' E 003°50'611.3
2018-Aug-02 16:57N 37°10' E 003°42'511.0
2018-Aug-02 16:29N 37°09' E 003°36'610.9
2018-Aug-02 15:57N 37°08' E 003°28'510.7
2018-Aug-02 15:30N 37°08' E 003°22'510.8
2018-Aug-02 15:00N 37°07' E 003°16'611.1
2018-Aug-02 14:30N 37°06' E 003°09'611.3
2018-Aug-02 14:00N 37°05' E 003°02'611.6
2018-Aug-02 13:30N 37°04' E 002°55'612.1
2018-Aug-02 13:00N 37°04' E 002°47'1012.4
2018-Aug-02 12:10N 37°02' E 002°34'212.3
2018-Aug-02 11:59N 37°02' E 002°31'612.1
2018-Aug-02 11:30N 37°01' E 002°24'612.2
2018-Aug-02 11:00N 36°60' E 002°17'612.2
2018-Aug-02 10:30N 36°59' E 002°09'612.3
2018-Aug-02 10:00N 36°57' E 002°01'612.3
2018-Aug-02 09:30N 36°57' E 001°54'612.8
2018-Aug-02 09:00N 36°56' E 001°46'712.9
2018-Aug-02 08:29N 36°55' E 001°37'612.9
2018-Aug-02 08:00N 36°54' E 001°30'612.7
2018-Aug-02 07:30N 36°53' E 001°22'712.8
2018-Aug-02 07:00N 36°52' E 001°14'613.0
2018-Aug-02 06:30N 36°51' E 001°06'812.9
2018-Aug-02 05:55N 36°50' E 000°57'512.6
2018-Aug-02 05:30N 36°49' E 000°50'612.8
2018-Aug-02 05:00N 36°48' E 000°43'612.7
2018-Aug-02 04:30N 36°46' E 000°35'612.2
2018-Aug-02 04:00N 36°45' E 000°27'612.0
2018-Aug-02 03:30N 36°44' E 000°20'612.1
2018-Aug-02 03:00N 36°43' E 000°12'712.3
2018-Aug-02 02:27N 36°42' E 000°04'512.2
2018-Aug-02 02:00N 36°41' W 000°03'612.0
2018-Aug-02 01:30N 36°40' W 000°10'611.9
2018-Aug-02 01:00N 36°39' W 000°17'611.8
2018-Aug-02 00:30N 36°38' W 000°25'611.4
2018-Aug-02 00:00N 36°37' W 000°32'611.7
2018-Aug-01 23:30N 36°36' W 000°39'611.6
2018-Aug-01 23:00N 36°35' W 000°46'611.6
2018-Aug-01 22:30N 36°34' W 000°53'911.6
2018-Aug-01 21:46N 36°32' W 001°03'311.6
2018-Aug-01 21:29N 36°32' W 001°07'1612.8
2018-Aug-01 20:13N 36°29' W 001°27'314.0
2018-Aug-01 20:00N 36°28' W 001°31'713.9
2018-Aug-01 19:28N 36°26' W 001°40'2313.5
2018-Aug-01 17:46N 36°22' W 002°08'289 7.9
2018-Jul-31 05:19N 35°28' W 007°58'512.0
2018-Jul-31 04:52N 35°26' W 008°04'411.8
2018-Jul-31 04:30N 35°25' W 008°09'3412.0
2018-Jul-31 01:42N 35°17' W 008°49'211.8
2018-Jul-31 01:30N 35°16' W 008°52'  
Track history (hours):
 
Tides and Currents Weather Stations Pressure Air Temp Water Temp Dewpoint Dewpoint Depression Visibility Wind Speed Wind Dir Waves Ship Positions

Ssi Glorious

Last reported at 2018-Aug-04 10:56 UTC. Time now 2018-Aug-14 07:02 UTC.
Position N 36°30' E 014°27'.
Warning: this ship's position is 9 days out of date.

Length 190 m; draft 8.5 m.

Type: Cargo ship. MMSI: 538004446.

Date/timePositionNaut miles runAvg speedWind from/ knotsBaromVisibWave heightAir tempDewpointWater temp
2018-Aug-04 10:56N 36°30' E 014°27'512.6
2018-Aug-04 10:30N 36°31' E 014°20'612.5
2018-Aug-04 10:00N 36°33' E 014°13'612.2
2018-Aug-04 09:30N 36°35' E 014°06'612.3
2018-Aug-04 09:00N 36°38' E 013°59'612.3
2018-Aug-04 08:30N 36°39' E 013°51'612.5
2018-Aug-04 08:00N 36°41' E 013°44'612.5
2018-Aug-04 07:30N 36°43' E 013°36'612.4
2018-Aug-04 07:00N 36°45' E 013°29'612.4
2018-Aug-04 06:30N 36°47' E 013°22'612.2
2018-Aug-04 06:00N 36°49' E 013°14'612.4
2018-Aug-04 05:30N 36°51' E 013°07'30312.6
2018-Aug-03 05:25N 37°28' E 006°50'2011.3
2018-Aug-03 03:37N 37°26' E 006°24'1212.4
2018-Aug-03 02:37N 37°24' E 006°09'312.4
2018-Aug-03 02:21N 37°24' E 006°05'1312.1
2018-Aug-03 01:19N 37°22' E 005°49'412.0
2018-Aug-03 01:00N 37°22' E 005°44'612.1
2018-Aug-03 00:30N 37°21' E 005°37'612.0
2018-Aug-03 00:00N 37°21' E 005°29'6712.4
2018-Aug-02 18:34N 37°12' E 004°05'112.0
2018-Aug-02 18:30N 37°12' E 004°04'611.8
2018-Aug-02 18:00N 37°11' E 003°57'611.7
2018-Aug-02 17:30N 37°11' E 003°50'611.3
2018-Aug-02 16:57N 37°10' E 003°42'511.0
2018-Aug-02 16:29N 37°09' E 003°36'610.9
2018-Aug-02 15:57N 37°08' E 003°28'510.7
2018-Aug-02 15:30N 37°08' E 003°22'510.8
2018-Aug-02 15:00N 37°07' E 003°16'611.1
2018-Aug-02 14:30N 37°06' E 003°09'611.3
2018-Aug-02 14:00N 37°05' E 003°02'611.6
2018-Aug-02 13:30N 37°04' E 002°55'612.1
2018-Aug-02 13:00N 37°04' E 002°47'1012.4
2018-Aug-02 12:10N 37°02' E 002°34'212.3
2018-Aug-02 11:59N 37°02' E 002°31'612.1
2018-Aug-02 11:30N 37°01' E 002°24'612.2
2018-Aug-02 11:00N 36°60' E 002°17'612.2
2018-Aug-02 10:30N 36°59' E 002°09'612.3
2018-Aug-02 10:00N 36°57' E 002°01'612.3
2018-Aug-02 09:30N 36°57' E 001°54'612.8
2018-Aug-02 09:00N 36°56' E 001°46'712.9
2018-Aug-02 08:29N 36°55' E 001°37'612.9
2018-Aug-02 08:00N 36°54' E 001°30'612.7
2018-Aug-02 07:30N 36°53' E 001°22'712.8
2018-Aug-02 07:00N 36°52' E 001°14'613.0
2018-Aug-02 06:30N 36°51' E 001°06'812.9
2018-Aug-02 05:55N 36°50' E 000°57'512.6
2018-Aug-02 05:30N 36°49' E 000°50'612.8
2018-Aug-02 05:00N 36°48' E 000°43'612.7
2018-Aug-02 04:30N 36°46' E 000°35'612.2
2018-Aug-02 04:00N 36°45' E 000°27'612.0
2018-Aug-02 03:30N 36°44' E 000°20'612.1
2018-Aug-02 03:00N 36°43' E 000°12'712.3
2018-Aug-02 02:27N 36°42' E 000°04'512.2
2018-Aug-02 02:00N 36°41' W 000°03'612.0
2018-Aug-02 01:30N 36°40' W 000°10'611.9
2018-Aug-02 01:00N 36°39' W 000°17'611.8
2018-Aug-02 00:30N 36°38' W 000°25'611.4
2018-Aug-02 00:00N 36°37' W 000°32'611.7
2018-Aug-01 23:30N 36°36' W 000°39'611.6
2018-Aug-01 23:00N 36°35' W 000°46'611.6
2018-Aug-01 22:30N 36°34' W 000°53'911.6
2018-Aug-01 21:46N 36°32' W 001°03'311.6
2018-Aug-01 21:29N 36°32' W 001°07'1612.8
2018-Aug-01 20:13N 36°29' W 001°27'314.0
2018-Aug-01 20:00N 36°28' W 001°31'713.9
2018-Aug-01 19:28N 36°26' W 001°40'2313.5
2018-Aug-01 17:46N 36°22' W 002°08'289 7.9
2018-Jul-31 05:19N 35°28' W 007°58'512.0
2018-Jul-31 04:52N 35°26' W 008°04'411.8
2018-Jul-31 04:30N 35°25' W 008°09'3412.0
2018-Jul-31 01:42N 35°17' W 008°49'211.8
2018-Jul-31 01:30N 35°16' W 008°52'  

Dump ship's entire track history